sensor_id;sensor_type;location;lat;lon;timestamp;pressure;altitude;pressure_sealevel;temperature
68012;BMP180;54794;48.348;7.878;2022-11-21T00:01:26;98478.00;;;8.00
68012;BMP180;54794;48.348;7.878;2022-11-21T00:03:53;98478.00;;;7.90
68012;BMP180;54794;48.348;7.878;2022-11-21T00:06:20;98471.00;;;8.00
68012;BMP180;54794;48.348;7.878;2022-11-21T00:08:49;98474.00;;;8.00
68012;BMP180;54794;48.348;7.878;2022-11-21T00:11:16;98471.00;;;8.10
68012;BMP180;54794;48.348;7.878;2022-11-21T00:13:43;98469.00;;;8.00
68012;BMP180;54794;48.348;7.878;2022-11-21T00:16:14;98464.00;;;8.00
68012;BMP180;54794;48.348;7.878;2022-11-21T00:18:41;98468.00;;;8.10
68012;BMP180;54794;48.348;7.878;2022-11-21T00:21:16;98468.00;;;8.10
68012;BMP180;54794;48.348;7.878;2022-11-21T00:23:44;98466.00;;;8.10
68012;BMP180;54794;48.348;7.878;2022-11-21T00:26:14;98451.00;;;8.10
68012;BMP180;54794;48.348;7.878;2022-11-21T00:28:42;98449.00;;;8.20
68012;BMP180;54794;48.348;7.878;2022-11-21T00:31:17;98450.00;;;8.20
68012;BMP180;54794;48.348;7.878;2022-11-21T00:33:44;98441.00;;;8.10
68012;BMP180;54794;48.348;7.878;2022-11-21T00:36:11;98442.00;;;8.10
68012;BMP180;54794;48.348;7.878;2022-11-21T00:38:38;98449.00;;;8.10
68012;BMP180;54794;48.348;7.878;2022-11-21T00:41:05;98437.00;;;8.10
68012;BMP180;54794;48.348;7.878;2022-11-21T00:43:32;98441.00;;;8.10
68012;BMP180;54794;48.348;7.878;2022-11-21T00:45:59;98424.00;;;8.20
68012;BMP180;54794;48.348;7.878;2022-11-21T00:48:30;98415.00;;;8.20
68012;BMP180;54794;48.348;7.878;2022-11-21T00:50:58;98412.00;;;8.20
68012;BMP180;54794;48.348;7.878;2022-11-21T00:53:26;98411.00;;;8.10
68012;BMP180;54794;48.348;7.878;2022-11-21T00:55:54;98398.00;;;8.20
68012;BMP180;54794;48.348;7.878;2022-11-21T00:58:21;98405.00;;;8.20
68012;BMP180;54794;48.348;7.878;2022-11-21T01:00:48;98399.00;;;8.20
68012;BMP180;54794;48.348;7.878;2022-11-21T01:03:15;98392.00;;;8.10
68012;BMP180;54794;48.348;7.878;2022-11-21T01:05:42;98391.00;;;8.20
68012;BMP180;54794;48.348;7.878;2022-11-21T01:08:09;98390.00;;;8.10
68012;BMP180;54794;48.348;7.878;2022-11-21T01:10:36;98393.00;;;8.10
68012;BMP180;54794;48.348;7.878;2022-11-21T01:13:03;98407.00;;;8.00
68012;BMP180;54794;48.348;7.878;2022-11-21T01:15:30;98413.00;;;8.10
68012;BMP180;54794;48.348;7.878;2022-11-21T01:17:57;98433.00;;;8.00
68012;BMP180;54794;48.348;7.878;2022-11-21T01:20:24;98426.00;;;8.10
68012;BMP180;54794;48.348;7.878;2022-11-21T01:22:51;98429.00;;;8.00
68012;BMP180;54794;48.348;7.878;2022-11-21T01:25:18;98450.00;;;8.00
68012;BMP180;54794;48.348;7.878;2022-11-21T01:27:45;98457.00;;;8.10
68012;BMP180;54794;48.348;7.878;2022-11-21T01:30:13;98462.00;;;8.00
68012;BMP180;54794;48.348;7.878;2022-11-21T01:32:40;98472.00;;;8.10
68012;BMP180;54794;48.348;7.878;2022-11-21T01:35:07;98435.00;;;8.20
68012;BMP180;54794;48.348;7.878;2022-11-21T01:37:34;98420.00;;;8.20
68012;BMP180;54794;48.348;7.878;2022-11-21T01:40:01;98409.00;;;8.10
68012;BMP180;54794;48.348;7.878;2022-11-21T01:42:28;98413.00;;;8.10
68012;BMP180;54794;48.348;7.878;2022-11-21T01:44:55;98403.00;;;8.30
68012;BMP180;54794;48.348;7.878;2022-11-21T01:47:22;98402.00;;;8.50
68012;BMP180;54794;48.348;7.878;2022-11-21T01:49:50;98389.00;;;8.60
68012;BMP180;54794;48.348;7.878;2022-11-21T01:52:28;98407.00;;;8.50
68012;BMP180;54794;48.348;7.878;2022-11-21T01:55:05;98403.00;;;8.60
68012;BMP180;54794;48.348;7.878;2022-11-21T01:57:40;98400.00;;;8.70
68012;BMP180;54794;48.348;7.878;2022-11-21T02:00:20;98411.00;;;8.40
68012;BMP180;54794;48.348;7.878;2022-11-21T02:02:54;98417.00;;;8.40
68012;BMP180;54794;48.348;7.878;2022-11-21T02:05:28;98412.00;;;8.10
68012;BMP180;54794;48.348;7.878;2022-11-21T02:08:05;98420.00;;;8.10
68012;BMP180;54794;48.348;7.878;2022-11-21T02:10:37;98415.00;;;8.30
68012;BMP180;54794;48.348;7.878;2022-11-21T02:13:05;98402.00;;;8.50
68012;BMP180;54794;48.348;7.878;2022-11-21T02:15:32;98407.00;;;8.40
68012;BMP180;54794;48.348;7.878;2022-11-21T02:17:59;98383.00;;;8.50
68012;BMP180;54794;48.348;7.878;2022-11-21T02:20:27;98388.00;;;8.50
68012;BMP180;54794;48.348;7.878;2022-11-21T02:25:43;98404.00;;;8.40
68012;BMP180;54794;48.348;7.878;2022-11-21T02:28:14;98394.00;;;8.50
68012;BMP180;54794;48.348;7.878;2022-11-21T02:30:42;98382.00;;;8.70
68012;BMP180;54794;48.348;7.878;2022-11-21T02:33:11;98385.00;;;8.70
68012;BMP180;54794;48.348;7.878;2022-11-21T02:35:39;98366.00;;;8.80
68012;BMP180;54794;48.348;7.878;2022-11-21T02:38:20;98360.00;;;8.90
68012;BMP180;54794;48.348;7.878;2022-11-21T02:40:56;98361.00;;;8.90
68012;BMP180;54794;48.348;7.878;2022-11-21T02:43:31;98366.00;;;8.70
68012;BMP180;54794;48.348;7.878;2022-11-21T02:45:58;98375.00;;;8.80
68012;BMP180;54794;48.348;7.878;2022-11-21T02:48:25;98372.00;;;8.50
68012;BMP180;54794;48.348;7.878;2022-11-21T02:50:52;98368.00;;;8.30
68012;BMP180;54794;48.348;7.878;2022-11-21T02:53:19;98385.00;;;8.30
68012;BMP180;54794;48.348;7.878;2022-11-21T02:55:46;98371.00;;;8.20
68012;BMP180;54794;48.348;7.878;2022-11-21T02:58:13;98376.00;;;8.40
68012;BMP180;54794;48.348;7.878;2022-11-21T03:00:42;98379.00;;;8.50
68012;BMP180;54794;48.348;7.878;2022-11-21T03:03:09;98366.00;;;8.40
68012;BMP180;54794;48.348;7.878;2022-11-21T03:05:38;98364.00;;;8.40
68012;BMP180;54794;48.348;7.878;2022-11-21T03:08:05;98360.00;;;8.40
68012;BMP180;54794;48.348;7.878;2022-11-21T03:10:32;98371.00;;;8.20
68012;BMP180;54794;48.348;7.878;2022-11-21T03:12:59;98366.00;;;8.40
68012;BMP180;54794;48.348;7.878;2022-11-21T03:15:33;98356.00;;;8.40
68012;BMP180;54794;48.348;7.878;2022-11-21T03:18:01;98354.00;;;8.30
68012;BMP180;54794;48.348;7.878;2022-11-21T03:20:31;98349.00;;;8.40
68012;BMP180;54794;48.348;7.878;2022-11-21T03:22:58;98346.00;;;8.40
68012;BMP180;54794;48.348;7.878;2022-11-21T03:25:25;98341.00;;;8.40
68012;BMP180;54794;48.348;7.878;2022-11-21T03:27:53;98353.00;;;8.40
68012;BMP180;54794;48.348;7.878;2022-11-21T03:30:24;98353.00;;;8.30
68012;BMP180;54794;48.348;7.878;2022-11-21T03:32:55;98338.00;;;8.50
68012;BMP180;54794;48.348;7.878;2022-11-21T03:35:23;98341.00;;;8.50
68012;BMP180;54794;48.348;7.878;2022-11-21T03:37:50;98334.00;;;8.50
68012;BMP180;54794;48.348;7.878;2022-11-21T03:40:17;98332.00;;;8.50
68012;BMP180;54794;48.348;7.878;2022-11-21T03:42:44;98342.00;;;8.40
68012;BMP180;54794;48.348;7.878;2022-11-21T03:45:11;98332.00;;;8.50
68012;BMP180;54794;48.348;7.878;2022-11-21T03:47:37;98339.00;;;8.60
68012;BMP180;54794;48.348;7.878;2022-11-21T03:50:05;98341.00;;;8.60
68012;BMP180;54794;48.348;7.878;2022-11-21T03:52:32;98340.00;;;8.40
68012;BMP180;54794;48.348;7.878;2022-11-21T03:54:59;98335.00;;;8.30
68012;BMP180;54794;48.348;7.878;2022-11-21T03:57:26;98347.00;;;8.40
68012;BMP180;54794;48.348;7.878;2022-11-21T03:59:53;98349.00;;;8.30
68012;BMP180;54794;48.348;7.878;2022-11-21T04:02:19;98350.00;;;8.20
68012;BMP180;54794;48.348;7.878;2022-11-21T04:04:46;98339.00;;;8.30
68012;BMP180;54794;48.348;7.878;2022-11-21T04:07:13;98338.00;;;8.20
68012;BMP180;54794;48.348;7.878;2022-11-21T04:09:40;98343.00;;;8.30
68012;BMP180;54794;48.348;7.878;2022-11-21T04:12:07;98348.00;;;8.10
68012;BMP180;54794;48.348;7.878;2022-11-21T04:14:34;98343.00;;;8.20
68012;BMP180;54794;48.348;7.878;2022-11-21T04:17:00;98343.00;;;8.40
68012;BMP180;54794;48.348;7.878;2022-11-21T04:19:27;98346.00;;;8.40
68012;BMP180;54794;48.348;7.878;2022-11-21T04:21:54;98340.00;;;8.10
68012;BMP180;54794;48.348;7.878;2022-11-21T04:24:21;98349.00;;;8.10
68012;BMP180;54794;48.348;7.878;2022-11-21T04:26:48;98340.00;;;8.20
68012;BMP180;54794;48.348;7.878;2022-11-21T04:29:15;98346.00;;;8.30
68012;BMP180;54794;48.348;7.878;2022-11-21T04:31:42;98343.00;;;8.30
68012;BMP180;54794;48.348;7.878;2022-11-21T04:34:09;98338.00;;;8.50
68012;BMP180;54794;48.348;7.878;2022-11-21T04:36:36;98344.00;;;8.60
68012;BMP180;54794;48.348;7.878;2022-11-21T04:39:03;98337.00;;;8.40
68012;BMP180;54794;48.348;7.878;2022-11-21T04:41:30;98333.00;;;8.50
68012;BMP180;54794;48.348;7.878;2022-11-21T04:43:57;98339.00;;;8.40
68012;BMP180;54794;48.348;7.878;2022-11-21T04:46:23;98334.00;;;8.50
68012;BMP180;54794;48.348;7.878;2022-11-21T04:48:50;98342.00;;;8.60
68012;BMP180;54794;48.348;7.878;2022-11-21T04:51:17;98345.00;;;8.50
68012;BMP180;54794;48.348;7.878;2022-11-21T04:53:44;98347.00;;;8.50
68012;BMP180;54794;48.348;7.878;2022-11-21T04:56:11;98351.00;;;8.40
68012;BMP180;54794;48.348;7.878;2022-11-21T04:58:43;98339.00;;;8.40
68012;BMP180;54794;48.348;7.878;2022-11-21T05:01:10;98336.00;;;8.60
68012;BMP180;54794;48.348;7.878;2022-11-21T05:03:38;98338.00;;;8.50
68012;BMP180;54794;48.348;7.878;2022-11-21T05:06:05;98337.00;;;8.50
68012;BMP180;54794;48.348;7.878;2022-11-21T05:08:32;98339.00;;;8.30
68012;BMP180;54794;48.348;7.878;2022-11-21T05:10:59;98344.00;;;8.40
68012;BMP180;54794;48.348;7.878;2022-11-21T05:13:44;98347.00;;;8.20
68012;BMP180;54794;48.348;7.878;2022-11-21T05:16:11;98347.00;;;8.10
68012;BMP180;54794;48.348;7.878;2022-11-21T05:18:37;98351.00;;;8.20
68012;BMP180;54794;48.348;7.878;2022-11-21T05:21:04;98354.00;;;8.40
68012;BMP180;54794;48.348;7.878;2022-11-21T05:23:31;98363.00;;;8.40
68012;BMP180;54794;48.348;7.878;2022-11-21T05:25:58;98357.00;;;8.50
68012;BMP180;54794;48.348;7.878;2022-11-21T05:28:25;98356.00;;;8.50
68012;BMP180;54794;48.348;7.878;2022-11-21T05:30:52;98359.00;;;8.50
68012;BMP180;54794;48.348;7.878;2022-11-21T05:33:19;98349.00;;;8.50
68012;BMP180;54794;48.348;7.878;2022-11-21T05:35:46;98342.00;;;8.50
68012;BMP180;54794;48.348;7.878;2022-11-21T05:38:13;98346.00;;;8.50
68012;BMP180;54794;48.348;7.878;2022-11-21T05:40:39;98353.00;;;8.50
68012;BMP180;54794;48.348;7.878;2022-11-21T05:43:09;98350.00;;;8.40
68012;BMP180;54794;48.348;7.878;2022-11-21T05:45:55;98350.00;;;8.40
68012;BMP180;54794;48.348;7.878;2022-11-21T05:48:22;98353.00;;;8.50
68012;BMP180;54794;48.348;7.878;2022-11-21T05:50:49;98354.00;;;8.40
68012;BMP180;54794;48.348;7.878;2022-11-21T05:53:16;98348.00;;;8.20
68012;BMP180;54794;48.348;7.878;2022-11-21T05:55:43;98356.00;;;8.40
68012;BMP180;54794;48.348;7.878;2022-11-21T05:58:11;98354.00;;;8.40
68012;BMP180;54794;48.348;7.878;2022-11-21T06:00:38;98354.00;;;8.40
68012;BMP180;54794;48.348;7.878;2022-11-21T06:03:05;98348.00;;;8.50
68012;BMP180;54794;48.348;7.878;2022-11-21T06:06:05;98353.00;;;8.30
68012;BMP180;54794;48.348;7.878;2022-11-21T06:08:41;98342.00;;;8.30
68012;BMP180;54794;48.348;7.878;2022-11-21T06:11:12;98341.00;;;8.40
68012;BMP180;54794;48.348;7.878;2022-11-21T06:13:39;98342.00;;;8.50
68012;BMP180;54794;48.348;7.878;2022-11-21T06:16:13;98339.00;;;8.60
68012;BMP180;54794;48.348;7.878;2022-11-21T06:18:43;98345.00;;;8.40
68012;BMP180;54794;48.348;7.878;2022-11-21T06:21:20;98342.00;;;8.40
68012;BMP180;54794;48.348;7.878;2022-11-21T06:23:50;98336.00;;;8.40
68012;BMP180;54794;48.348;7.878;2022-11-21T06:26:22;98342.00;;;8.40
68012;BMP180;54794;48.348;7.878;2022-11-21T06:28:49;98346.00;;;8.40
68012;BMP180;54794;48.348;7.878;2022-11-21T06:31:19;98339.00;;;8.40
68012;BMP180;54794;48.348;7.878;2022-11-21T06:33:46;98341.00;;;8.20
68012;BMP180;54794;48.348;7.878;2022-11-21T06:36:16;98337.00;;;8.40
68012;BMP180;54794;48.348;7.878;2022-11-21T06:38:44;98343.00;;;8.50
68012;BMP180;54794;48.348;7.878;2022-11-21T06:41:15;98337.00;;;8.50
68012;BMP180;54794;48.348;7.878;2022-11-21T06:43:42;98335.00;;;8.40
68012;BMP180;54794;48.348;7.878;2022-11-21T06:46:09;98332.00;;;8.60
68012;BMP180;54794;48.348;7.878;2022-11-21T06:48:38;98333.00;;;8.50
68012;BMP180;54794;48.348;7.878;2022-11-21T06:51:15;98335.00;;;8.50
68012;BMP180;54794;48.348;7.878;2022-11-21T06:53:42;98328.00;;;8.50
68012;BMP180;54794;48.348;7.878;2022-11-21T06:56:09;98334.00;;;8.40
68012;BMP180;54794;48.348;7.878;2022-11-21T06:58:36;98334.00;;;8.50
68012;BMP180;54794;48.348;7.878;2022-11-21T07:01:09;98326.00;;;8.50
68012;BMP180;54794;48.348;7.878;2022-11-21T07:03:36;98329.00;;;8.60
68012;BMP180;54794;48.348;7.878;2022-11-21T07:06:04;98329.00;;;8.50
68012;BMP180;54794;48.348;7.878;2022-11-21T07:08:34;98324.00;;;8.50
68012;BMP180;54794;48.348;7.878;2022-11-21T07:11:05;98330.00;;;8.40
68012;BMP180;54794;48.348;7.878;2022-11-21T07:13:52;98327.00;;;8.40
68012;BMP180;54794;48.348;7.878;2022-11-21T07:16:19;98323.00;;;8.60
68012;BMP180;54794;48.348;7.878;2022-11-21T07:18:46;98320.00;;;8.60
68012;BMP180;54794;48.348;7.878;2022-11-21T07:21:13;98315.00;;;8.40
68012;BMP180;54794;48.348;7.878;2022-11-21T07:23:40;98309.00;;;8.60
68012;BMP180;54794;48.348;7.878;2022-11-21T07:26:09;98308.00;;;8.50
68012;BMP180;54794;48.348;7.878;2022-11-21T07:28:36;98309.00;;;8.50
68012;BMP180;54794;48.348;7.878;2022-11-21T07:31:03;98310.00;;;8.50
68012;BMP180;54794;48.348;7.878;2022-11-21T07:33:38;98307.00;;;8.50
68012;BMP180;54794;48.348;7.878;2022-11-21T07:36:05;98302.00;;;8.50
68012;BMP180;54794;48.348;7.878;2022-11-21T07:38:32;98296.00;;;8.60
68012;BMP180;54794;48.348;7.878;2022-11-21T07:40:59;98303.00;;;8.60
68012;BMP180;54794;48.348;7.878;2022-11-21T07:43:26;98303.00;;;8.60
68012;BMP180;54794;48.348;7.878;2022-11-21T07:45:53;98306.00;;;8.50
68012;BMP180;54794;48.348;7.878;2022-11-21T07:48:21;98304.00;;;8.60
68012;BMP180;54794;48.348;7.878;2022-11-21T07:50:48;98300.00;;;8.60
68012;BMP180;54794;48.348;7.878;2022-11-21T07:53:14;98308.00;;;8.50
68012;BMP180;54794;48.348;7.878;2022-11-21T07:55:41;98300.00;;;8.60
68012;BMP180;54794;48.348;7.878;2022-11-21T07:58:11;98306.00;;;8.60
68012;BMP180;54794;48.348;7.878;2022-11-21T08:00:40;98302.00;;;8.50
68012;BMP180;54794;48.348;7.878;2022-11-21T08:03:10;98295.00;;;8.60
68012;BMP180;54794;48.348;7.878;2022-11-21T08:05:41;98293.00;;;8.80
68012;BMP180;54794;48.348;7.878;2022-11-21T08:08:12;98290.00;;;8.90
68012;BMP180;54794;48.348;7.878;2022-11-21T08:10:45;98296.00;;;8.70
68012;BMP180;54794;48.348;7.878;2022-11-21T08:13:13;98285.00;;;8.80
68012;BMP180;54794;48.348;7.878;2022-11-21T08:15:40;98287.00;;;8.70
68012;BMP180;54794;48.348;7.878;2022-11-21T08:18:15;98275.00;;;8.80
68012;BMP180;54794;48.348;7.878;2022-11-21T08:20:45;98273.00;;;8.80
68012;BMP180;54794;48.348;7.878;2022-11-21T08:23:12;98272.00;;;8.90
68012;BMP180;54794;48.348;7.878;2022-11-21T08:25:41;98272.00;;;8.90
68012;BMP180;54794;48.348;7.878;2022-11-21T08:28:10;98265.00;;;9.00
68012;BMP180;54794;48.348;7.878;2022-11-21T08:30:38;98270.00;;;9.00
68012;BMP180;54794;48.348;7.878;2022-11-21T08:33:06;98268.00;;;9.10
68012;BMP180;54794;48.348;7.878;2022-11-21T08:35:36;98252.00;;;9.10
68012;BMP180;54794;48.348;7.878;2022-11-21T08:38:06;98255.00;;;9.20
68012;BMP180;54794;48.348;7.878;2022-11-21T08:40:35;98254.00;;;9.20
68012;BMP180;54794;48.348;7.878;2022-11-21T08:43:07;98246.00;;;9.30
68012;BMP180;54794;48.348;7.878;2022-11-21T08:45:36;98244.00;;;9.20
68012;BMP180;54794;48.348;7.878;2022-11-21T08:48:08;98246.00;;;9.20
68012;BMP180;54794;48.348;7.878;2022-11-21T08:50:36;98235.00;;;9.30
68012;BMP180;54794;48.348;7.878;2022-11-21T08:53:03;98244.00;;;9.30
68012;BMP180;54794;48.348;7.878;2022-11-21T08:55:30;98243.00;;;9.40
68012;BMP180;54794;48.348;7.878;2022-11-21T08:57:57;98238.00;;;9.40
68012;BMP180;54794;48.348;7.878;2022-11-21T09:00:24;98240.00;;;9.40
68012;BMP180;54794;48.348;7.878;2022-11-21T09:02:51;98236.00;;;9.30
68012;BMP180;54794;48.348;7.878;2022-11-21T09:05:18;98224.00;;;9.50
68012;BMP180;54794;48.348;7.878;2022-11-21T09:07:46;98218.00;;;9.60
68012;BMP180;54794;48.348;7.878;2022-11-21T09:10:14;98220.00;;;9.70
68012;BMP180;54794;48.348;7.878;2022-11-21T09:12:41;98214.00;;;9.60
68012;BMP180;54794;48.348;7.878;2022-11-21T09:15:10;98212.00;;;9.70
68012;BMP180;54794;48.348;7.878;2022-11-21T09:18:00;98214.00;;;9.70
68012;BMP180;54794;48.348;7.878;2022-11-21T09:20:32;98210.00;;;9.70
68012;BMP180;54794;48.348;7.878;2022-11-21T09:23:09;98206.00;;;9.70
68012;BMP180;54794;48.348;7.878;2022-11-21T09:25:36;98208.00;;;9.80
68012;BMP180;54794;48.348;7.878;2022-11-21T09:28:06;98197.00;;;9.70
68012;BMP180;54794;48.348;7.878;2022-11-21T09:30:34;98204.00;;;9.80
68012;BMP180;54794;48.348;7.878;2022-11-21T09:33:05;98190.00;;;9.90
68012;BMP180;54794;48.348;7.878;2022-11-21T09:35:33;98168.00;;;9.90
68012;BMP180;54794;48.348;7.878;2022-11-21T09:37:59;98165.00;;;10.00
68012;BMP180;54794;48.348;7.878;2022-11-21T09:40:29;98150.00;;;10.10
68012;BMP180;54794;48.348;7.878;2022-11-21T09:46:08;98136.00;;;10.20
68012;BMP180;54794;48.348;7.878;2022-11-21T09:48:55;98144.00;;;10.20
68012;BMP180;54794;48.348;7.878;2022-11-21T09:51:29;98143.00;;;9.90
68012;BMP180;54794;48.348;7.878;2022-11-21T09:54:17;98151.00;;;10.20
68012;BMP180;54794;48.348;7.878;2022-11-21T09:56:46;98152.00;;;10.20
68012;BMP180;54794;48.348;7.878;2022-11-21T09:59:26;98144.00;;;10.30
68012;BMP180;54794;48.348;7.878;2022-11-21T10:01:55;98130.00;;;10.30
68012;BMP180;54794;48.348;7.878;2022-11-21T10:04:23;98137.00;;;10.40
68012;BMP180;54794;48.348;7.878;2022-11-21T10:07:10;98121.00;;;10.40
68012;BMP180;54794;48.348;7.878;2022-11-21T10:16:00;98113.00;;;10.60
68012;BMP180;54794;48.348;7.878;2022-11-21T10:21:52;98084.00;;;10.80
68012;BMP180;54794;48.348;7.878;2022-11-21T10:27:13;98077.00;;;10.70
68012;BMP180;54794;48.348;7.878;2022-11-21T10:29:53;98058.00;;;10.70
68012;BMP180;54794;48.348;7.878;2022-11-21T10:35:37;98047.00;;;10.90
68012;BMP180;54794;48.348;7.878;2022-11-21T10:38:25;98033.00;;;10.90
68012;BMP180;54794;48.348;7.878;2022-11-21T10:41:17;98022.00;;;11.00
68012;BMP180;54794;48.348;7.878;2022-11-21T10:43:55;98018.00;;;11.10
68012;BMP180;54794;48.348;7.878;2022-11-21T10:47:00;98027.00;;;11.10
68012;BMP180;54794;48.348;7.878;2022-11-21T10:49:32;98006.00;;;11.00
68012;BMP180;54794;48.348;7.878;2022-11-21T10:52:22;97997.00;;;11.00
68012;BMP180;54794;48.348;7.878;2022-11-21T10:57:47;97997.00;;;10.90
68012;BMP180;54794;48.348;7.878;2022-11-21T11:00:23;98011.00;;;10.90
68012;BMP180;54794;48.348;7.878;2022-11-21T11:03:01;98005.00;;;10.80
68012;BMP180;54794;48.348;7.878;2022-11-21T11:05:36;97991.00;;;11.10
68012;BMP180;54794;48.348;7.878;2022-11-21T11:11:00;97978.00;;;11.30
68012;BMP180;54794;48.348;7.878;2022-11-21T11:13:29;97959.00;;;11.30
68012;BMP180;54794;48.348;7.878;2022-11-21T11:16:19;97959.00;;;11.30
68012;BMP180;54794;48.348;7.878;2022-11-21T11:19:04;97945.00;;;11.30
68012;BMP180;54794;48.348;7.878;2022-11-21T11:21:41;97943.00;;;11.30
68012;BMP180;54794;48.348;7.878;2022-11-21T11:29:29;97945.00;;;11.30
68012;BMP180;54794;48.348;7.878;2022-11-21T11:34:59;97925.00;;;11.40
68012;BMP180;54794;48.348;7.878;2022-11-21T11:37:37;97919.00;;;11.30
68012;BMP180;54794;48.348;7.878;2022-11-21T11:49:39;97873.00;;;11.50
68012;BMP180;54794;48.348;7.878;2022-11-21T11:52:32;97865.00;;;11.40
68012;BMP180;54794;48.348;7.878;2022-11-21T11:55:12;97866.00;;;11.40
68012;BMP180;54794;48.348;7.878;2022-11-21T11:57:42;97864.00;;;11.40
68012;BMP180;54794;48.348;7.878;2022-11-21T12:03:12;97851.00;;;11.50
68012;BMP180;54794;48.348;7.878;2022-11-21T12:08:54;97835.00;;;11.50
68012;BMP180;54794;48.348;7.878;2022-11-21T12:11:49;97834.00;;;11.60
68012;BMP180;54794;48.348;7.878;2022-11-21T12:21:12;97813.00;;;11.50
68012;BMP180;54794;48.348;7.878;2022-11-21T12:23:57;97808.00;;;11.70
68012;BMP180;54794;48.348;7.878;2022-11-21T12:57:17;97735.00;;;11.90
68012;BMP180;54794;48.348;7.878;2022-11-21T13:05:22;97709.00;;;12.20
68012;BMP180;54794;48.348;7.878;2022-11-21T13:08:01;97701.00;;;12.10
68012;BMP180;54794;48.348;7.878;2022-11-21T13:10:30;97703.00;;;12.00
68012;BMP180;54794;48.348;7.878;2022-11-21T13:13:22;97709.00;;;12.10
68012;BMP180;54794;48.348;7.878;2022-11-21T13:16:01;97704.00;;;12.00
68012;BMP180;54794;48.348;7.878;2022-11-21T13:18:40;97689.00;;;12.00
68012;BMP180;54794;48.348;7.878;2022-11-21T13:21:45;97685.00;;;12.00
68012;BMP180;54794;48.348;7.878;2022-11-21T13:30:21;97655.00;;;12.20
68012;BMP180;54794;48.348;7.878;2022-11-21T13:32:53;97647.00;;;12.10
68012;BMP180;54794;48.348;7.878;2022-11-21T13:38:07;97635.00;;;12.00
68012;BMP180;54794;48.348;7.878;2022-11-21T13:40:39;97638.00;;;11.90
68012;BMP180;54794;48.348;7.878;2022-11-21T13:43:32;97629.00;;;12.00
68012;BMP180;54794;48.348;7.878;2022-11-21T13:46:01;97620.00;;;12.00
68012;BMP180;54794;48.348;7.878;2022-11-21T13:51:26;97609.00;;;11.90
68012;BMP180;54794;48.348;7.878;2022-11-21T13:59:58;97597.00;;;11.90
68012;BMP180;54794;48.348;7.878;2022-11-21T14:03:12;97589.00;;;11.80
68012;BMP180;54794;48.348;7.878;2022-11-21T14:05:56;97568.00;;;11.80
68012;BMP180;54794;48.348;7.878;2022-11-21T14:08:27;97552.00;;;11.80
68012;BMP180;54794;48.348;7.878;2022-11-21T14:10:56;97547.00;;;11.60
68012;BMP180;54794;48.348;7.878;2022-11-21T14:13:33;97539.00;;;11.70
68012;BMP180;54794;48.348;7.878;2022-11-21T14:16:34;97530.00;;;11.80
68012;BMP180;54794;48.348;7.878;2022-11-21T14:19:03;97512.00;;;11.80
68012;BMP180;54794;48.348;7.878;2022-11-21T14:21:32;97500.00;;;11.50
68012;BMP180;54794;48.348;7.878;2022-11-21T14:24:12;97487.00;;;11.50
68012;BMP180;54794;48.348;7.878;2022-11-21T14:26:48;97474.00;;;11.30
68012;BMP180;54794;48.348;7.878;2022-11-21T14:29:39;97449.00;;;11.40
68012;BMP180;54794;48.348;7.878;2022-11-21T14:32:13;97445.00;;;11.20
68012;BMP180;54794;48.348;7.878;2022-11-21T14:34:40;97433.00;;;11.10
68012;BMP180;54794;48.348;7.878;2022-11-21T14:37:10;97440.00;;;10.90
68012;BMP180;54794;48.348;7.878;2022-11-21T14:39:39;97446.00;;;10.90
68012;BMP180;54794;48.348;7.878;2022-11-21T14:42:14;97440.00;;;11.10
68012;BMP180;54794;48.348;7.878;2022-11-21T14:44:42;97434.00;;;11.00
68012;BMP180;54794;48.348;7.878;2022-11-21T14:47:14;97421.00;;;11.10
68012;BMP180;54794;48.348;7.878;2022-11-21T14:49:54;97414.00;;;11.30
68012;BMP180;54794;48.348;7.878;2022-11-21T14:52:30;97406.00;;;11.40
68012;BMP180;54794;48.348;7.878;2022-11-21T14:55:04;97411.00;;;11.20
68012;BMP180;54794;48.348;7.878;2022-11-21T14:57:53;97425.00;;;11.00
68012;BMP180;54794;48.348;7.878;2022-11-21T15:00:24;97426.00;;;10.90
68012;BMP180;54794;48.348;7.878;2022-11-21T15:03:30;97424.00;;;11.10
68012;BMP180;54794;48.348;7.878;2022-11-21T15:06:04;97414.00;;;10.90
68012;BMP180;54794;48.348;7.878;2022-11-21T15:08:36;97420.00;;;11.00
68012;BMP180;54794;48.348;7.878;2022-11-21T15:11:56;97407.00;;;10.80
68012;BMP180;54794;48.348;7.878;2022-11-21T15:14:41;97397.00;;;10.80
68012;BMP180;54794;48.348;7.878;2022-11-21T15:17:18;97400.00;;;10.80
68012;BMP180;54794;48.348;7.878;2022-11-21T15:20:22;97410.00;;;10.80
68012;BMP180;54794;48.348;7.878;2022-11-21T15:22:53;97399.00;;;10.70
68012;BMP180;54794;48.348;7.878;2022-11-21T15:25:23;97372.00;;;10.80
68012;BMP180;54794;48.348;7.878;2022-11-21T15:28:06;97358.00;;;10.70
68012;BMP180;54794;48.348;7.878;2022-11-21T15:30:36;97365.00;;;10.60
68012;BMP180;54794;48.348;7.878;2022-11-21T15:35:54;97352.00;;;10.60
68012;BMP180;54794;48.348;7.878;2022-11-21T15:38:23;97349.00;;;10.50
68012;BMP180;54794;48.348;7.878;2022-11-21T15:43:43;97303.00;;;10.40
68012;BMP180;54794;48.348;7.878;2022-11-21T15:46:23;97303.00;;;10.20
68012;BMP180;54794;48.348;7.878;2022-11-21T15:48:52;97300.00;;;10.30
68012;BMP180;54794;48.348;7.878;2022-11-21T15:51:24;97296.00;;;10.10
68012;BMP180;54794;48.348;7.878;2022-11-21T15:54:20;97287.00;;;10.20
68012;BMP180;54794;48.348;7.878;2022-11-21T15:56:47;97275.00;;;10.20
68012;BMP180;54794;48.348;7.878;2022-11-21T15:59:15;97275.00;;;10.10
68012;BMP180;54794;48.348;7.878;2022-11-21T16:01:43;97273.00;;;10.00
68012;BMP180;54794;48.348;7.878;2022-11-21T16:04:11;97294.00;;;9.90
68012;BMP180;54794;48.348;7.878;2022-11-21T16:06:38;97301.00;;;10.00
68012;BMP180;54794;48.348;7.878;2022-11-21T16:09:05;97291.00;;;10.10
68012;BMP180;54794;48.348;7.878;2022-11-21T16:11:35;97285.00;;;9.90
68012;BMP180;54794;48.348;7.878;2022-11-21T16:14:15;97276.00;;;9.90
68012;BMP180;54794;48.348;7.878;2022-11-21T16:16:43;97260.00;;;9.90
68012;BMP180;54794;48.348;7.878;2022-11-21T16:19:14;97252.00;;;10.00
68012;BMP180;54794;48.348;7.878;2022-11-21T16:21:41;97242.00;;;9.90
68012;BMP180;54794;48.348;7.878;2022-11-21T16:24:08;97241.00;;;9.70
68012;BMP180;54794;48.348;7.878;2022-11-21T16:26:35;97242.00;;;9.80
68012;BMP180;54794;48.348;7.878;2022-11-21T16:29:03;97237.00;;;9.90
68012;BMP180;54794;48.348;7.878;2022-11-21T16:31:41;97225.00;;;9.80
68012;BMP180;54794;48.348;7.878;2022-11-21T16:34:11;97218.00;;;9.80
68012;BMP180;54794;48.348;7.878;2022-11-21T16:36:38;97208.00;;;9.80
68012;BMP180;54794;48.348;7.878;2022-11-21T16:39:04;97214.00;;;9.70